Details From EGKB - Biggin Hill
To EGHH - Bournemouth
Flight Number -
Tags decoded
Created
Modified
Stats Distance 80 nm / 148 km
Max Altitude 0 ft / 0 m
Waypoints 5
Social Downloads 1
Likes 0
Share VATSIM

Download

Looking for another format? Having issues loading an existing format? Contact us
Advertisement - Login to hide

Notes

Requested: EGKB OCK MI SAM BIA I EGHH

Route

EGKB OCK SAM BIA EGHH

ID Type Via Altitude Latitude Longitude Leg Dist Tot Dist Heading (true) Name
O EGKB APT - 0 ft / 0 m 51.32671˚ 0.03288˚ - 0 nm - Biggin Hill
OCK VOR - 0 ft / 0 m 51.30500˚ -0.44722˚ 18 nm 18 nm 266° / 266° OCKHAM VOR-DME
SAM VOR - 0 ft / 0 m 50.95528˚ -1.34500˚ 39 nm 57 nm 239° / 238° SOUTHAMPTON VOR-DME
BIA NDB - 0 ft / 0 m 50.77767˚ -1.84249˚ 21 nm 79 nm 241° / 240° BOURNEMOUTH NDB
O EGHH APT - 0 ft / 0 m 50.78007˚ -1.84253˚ 0 nm 79 nm 359° / 359° Bournemouth

Altitude Profile

Advertisement - Login to hide

EGKB

Details ICAO EGKB (BQH)
Name Biggin Hill
Region United Kingdom
Timezone Europe/London (UTC+0.0)
Stats Elevation 598 ft / 182 m (AMSL)
Location 51.326710° 0.032876°
Runways 2
Magnetic Variation 0.373° W

METAR

EGKB 151720Z 32012KT 9999 -RA BKN015 05/02 Q1003

Decode

TAF

Not found

Departure Runways

ID Width Length Bearing (true) Bearing (mag) Surface Threshold Offset Overrun Length
03 148 ft / 45 m 5,915 ft / 1,803 m 25.53° 25.90° Asphalt 804 ft / 245 m 0 ft / 0 m
11 59 ft / 18 m 2,579 ft / 786 m 105.47° 105.84° Asphalt 0 ft / 0 m 0 ft / 0 m
21 148 ft / 45 m 5,915 ft / 1,803 m 205.53° 205.90° Asphalt 0 ft / 0 m 0 ft / 0 m
29 59 ft / 18 m 2,579 ft / 786 m 285.48° 285.85° Asphalt 0 ft / 0 m 0 ft / 0 m

EGHH

Details ICAO EGHH (BOH)
Name Bournemouth
Region United Kingdom
Timezone Europe/London (UTC+0.0)
Stats Elevation 38 ft / 12 m (AMSL)
Location 50.780065° -1.842533°
Runways 1
Magnetic Variation 0.962° W

METAR

EGHH 151720Z 35013KT 300V020 9999 FEW025 04/01 Q1006

Decode

TAF

Not found

Destination Runways

ID Width Length Bearing (true) Bearing (mag) Surface Threshold Offset Overrun Length
08 151 ft / 46 m 7,440 ft / 2,268 m 75.27° 76.23° Asphalt 1,424 ft / 434 m 0 ft / 0 m
26 151 ft / 46 m 7,440 ft / 2,268 m 255.29° 256.25° Asphalt 0 ft / 0 m 328 ft / 100 m

Approach Navaids

Runway Type Ident Frequency Range Bearing (true) Bearing (mag) Slope Elevation
08 Localiser IBMH 110.50 MHz 18 nm / 33 km 75.09° 76.05° - 32 ft / 10 m (AMSL)
08 Glidescope IBMH 110.50 MHz 18 nm / 33 km 75.09° 76.05° 3.00° 30 ft / 9 m (AMSL)
08 DME IBMH 110.50 MHz 20 nm / 37 km - - - 31 ft / 9 m (AMSL)
26 Localiser IBH 110.50 MHz 18 nm / 33 km 255.41° 256.37° - 33 ft / 10 m (AMSL)
26 Glidescope IBH 110.50 MHz 18 nm / 33 km 255.41° 256.37° 3.00° 36 ft / 11 m (AMSL)
26 DME IBH 110.50 MHz 20 nm / 37 km - - - 31 ft / 9 m (AMSL)

Popular Alternatives